Shell Lake, Canada
Current Conditions -  °F | °C
As of 9:00 AM on Monday 24 Nov 2014 (Local Time) from CYPA Reporting Station
Light Snow Light Snow  
Wind Chill:   Ceiling: 4100
Heat Index: 10°   Visibility: 2mi
Dew Point:   Wind: 5mph
Humidity: 85%   Direction: 50°NE
Pressure: 29.87"   Gusts: NA
Location:  53.3°N, 107.05°W
Report Text: CYPA 241500Z 05004KT 2SM -SN OVC041 M12/M14 A2987 RMK SC8 SLP155
Loading
Personal Weather Stations






























Interactive Weather Map New forecast layout! Learn more

10-Day Weather Forecast

Advertisements
Track Severe Weather on mobile